createdAt,value
2023-01-31T11:39:19.517Z,4189.3
2023-01-31T11:44:54.869Z,4164.6
2023-01-31T11:50:30.810Z,4161.9
2023-01-31T11:56:06.207Z,4168.7
2023-01-31T12:02:27.157Z,4178.8
2023-01-31T12:08:02.723Z,4169.1
2023-01-31T12:14:14.843Z,4172.4
2023-01-31T12:19:51.012Z,4180.1
2023-01-31T12:25:25.835Z,4190.3
2023-01-31T12:31:03.278Z,4173.1
2023-01-31T12:36:42.145Z,4167.1
2023-01-31T12:42:23.367Z,4169.2
2023-01-31T12:47:59.929Z,4184.7
2023-01-31T12:53:35.483Z,4173.3
2023-01-31T12:59:24.314Z,4207.6
2023-01-31T13:05:10.918Z,4196.7
2023-01-31T13:10:46.173Z,4190.5
2023-01-31T13:16:43.753Z,4174.9
2023-01-31T13:22:38.370Z,4198.9
2023-01-31T13:28:14.690Z,4186
2023-01-31T13:33:49.612Z,4180.6
2023-01-31T13:39:26.785Z,4190
2023-01-31T13:45:04.857Z,4191.5
2023-01-31T13:50:42.312Z,4192
2023-01-31T13:56:17.635Z,4198.1
2023-01-31T14:01:54.132Z,4183.8
2023-01-31T14:07:32.073Z,4212.5
2023-01-31T14:13:07.648Z,4186.5
2023-01-31T14:18:51.705Z,4196.9
2023-01-31T14:24:31.025Z,4198.1
2023-01-31T14:30:18.266Z,4206.8
2023-01-31T14:35:57.001Z,4205.8
2023-01-31T14:42:08.783Z,4183.1
2023-01-31T14:48:06.350Z,4188.3
2023-01-31T14:54:05.755Z,4193.2
2023-01-31T14:59:51.556Z,4212.3
2023-01-31T15:05:27.143Z,4196.2
2023-01-31T15:11:02.601Z,4209.3
2023-01-31T15:16:38.716Z,4194
2023-01-31T15:22:15.204Z,4196.7
2023-01-31T15:27:55.248Z,4186.8
2023-01-31T15:33:33.432Z,4174.1
2023-01-31T15:39:08.783Z,4169.4
2023-01-31T15:44:56.236Z,4177.5
2023-01-31T15:50:31.464Z,4173.9
2023-01-31T15:56:29.816Z,4169.9
2023-01-31T16:02:50.884Z,4171.3
2023-01-31T16:08:35.337Z,4169.4
2023-01-31T16:14:59.139Z,4173.3
2023-01-31T16:20:34.556Z,4174.6
2023-01-31T16:26:13.634Z,4169.2
2023-01-31T16:31:55.688Z,4167.4
2023-01-31T16:37:47.584Z,4164.9
2023-01-31T16:43:28.280Z,4162.2
2023-01-31T16:49:25.810Z,4156
2023-01-31T16:55:01.537Z,4156.5
2023-01-31T17:00:36.771Z,4153.8
2023-01-31T17:06:16.491Z,4154.2
2023-01-31T17:11:54.880Z,4157
2023-01-31T17:17:44.612Z,4151.7
2023-01-31T17:23:23.417Z,4152.7
2023-01-31T17:29:12.999Z,4152
2023-01-31T17:35:02.972Z,4151.2
2023-01-31T17:40:43.996Z,4151.2
2023-01-31T17:46:41.917Z,4146
2023-01-31T17:52:18.851Z,4149.5
2023-01-31T17:58:00.382Z,4146.8
2023-01-31T18:03:48.119Z,4147.8
2023-01-31T18:09:24.708Z,4147
2023-01-31T18:15:10.245Z,4147.6
2023-01-31T18:20:47.776Z,4147.3
2023-01-31T18:26:24.346Z,4148.5
2023-01-31T18:32:18.542Z,4147.8
2023-01-31T18:37:59.712Z,4146.6
2023-01-31T18:43:39.969Z,4146.3
2023-01-31T18:49:19.579Z,4147.5
2023-01-31T18:54:59.951Z,4148.3
2023-01-31T19:00:55.410Z,4147.5
2023-01-31T19:06:31.188Z,4143.4
2023-01-31T19:12:09.602Z,4147.5
2023-01-31T19:17:47.528Z,4146.3
2023-01-31T19:23:31.626Z,4145.1
2023-01-31T19:29:10.909Z,4147.8
2023-01-31T19:34:49.909Z,4146.5
